»·PEaware :: N350KT KBOI-KGJT

N350KT :: KBOI-KGJT

FLIGHT INFORMATION

Flight Status: Arrived
Operator: Privately registered:
United States
More flights under this callsign
Pilot: Aundrey S. (17120)
Aircraft: BEECH AIRCRAFT PREMIER
(PRM1)
More flights by this aircraft type
Origin: KBOI Boise Air Terminal/Gowen
United States
Destination: KGJT Grand Junction Regl
United States
More flights between these airports :: More routes between these airports
Route: ROARR LYONS TWF JNC
File this flight plan on PilotEdge
Remarks: RMK / SIMBRIEF
Altitude:
(Current/Filed)
33,000ft
Speed:
(Current/Filed)
374kts
Departed: 14-Dec-22 08:21 PM
Arrived: 14-Dec-22 09:39 PM
Distance/Time
Traveled:
437nm/1:18
Distance/Time
To Go:
Arrived

Flight Plot

Page will automatically refresh every two minutes.

Flight plan parsing failed; only flown route is shown


Map Options




Map Legend


Flown Route
Filed Route
Departure Airport
Arrival Airport
Navaid (VOR, NDB)
Fix

Horizontal Profiles

Position Reports

Time Latitude Longitude Heading Altitude Ground
Speed
14-Dec-22 19:42 43.570545 -116.228533 275 2878ft 0kts
14-Dec-22 19:43 43.570545 -116.228533 275 2878ft 0kts
14-Dec-22 19:44 43.570545 -116.228533 275 2878ft 0kts
14-Dec-22 19:45 43.570545 -116.228533 275 2878ft 0kts
14-Dec-22 19:46 43.570545 -116.228533 275 2878ft 0kts
14-Dec-22 19:47 43.570545 -116.228533 275 2878ft 0kts
14-Dec-22 19:48 43.570545 -116.228533 275 2878ft 0kts
14-Dec-22 19:49 43.570545 -116.228533 275 2878ft 0kts
14-Dec-22 19:49 43.570545 -116.228533 275 2878ft 0kts
14-Dec-22 19:51 43.570545 -116.228533 275 2878ft 0kts
14-Dec-22 19:52 43.570545 -116.228533 275 2878ft 0kts
14-Dec-22 19:53 43.570545 -116.228533 275 2878ft 0kts
14-Dec-22 19:53 43.570545 -116.228533 275 2878ft 0kts
14-Dec-22 19:54 43.570545 -116.228533 275 2878ft 0kts
14-Dec-22 19:55 43.570545 -116.228533 275 2878ft 0kts
14-Dec-22 19:56 43.570545 -116.228533 275 2878ft 0kts
14-Dec-22 19:58 43.570545 -116.228533 275 2878ft 0kts
14-Dec-22 19:58 43.570545 -116.228533 275 2878ft 0kts
14-Dec-22 19:59 43.570545 -116.228533 275 2878ft 0kts
14-Dec-22 20:00 43.570545 -116.228533 275 2878ft 0kts
14-Dec-22 20:01 43.570545 -116.228533 275 2878ft 0kts
14-Dec-22 20:02 43.570545 -116.228533 275 2878ft 0kts
14-Dec-22 20:03 43.570545 -116.228533 275 2878ft 0kts
14-Dec-22 20:04 43.570545 -116.228533 275 2878ft 0kts
14-Dec-22 20:05 43.570545 -116.228533 275 2878ft 0kts
14-Dec-22 20:06 43.570545 -116.228533 275 2878ft 0kts
14-Dec-22 20:07 43.570545 -116.228533 275 2878ft 0kts
14-Dec-22 20:08 43.570545 -116.228533 275 2878ft 0kts
14-Dec-22 20:09 43.570545 -116.228533 275 2878ft 0kts
14-Dec-22 20:10 43.570545 -116.228533 275 2878ft 0kts
14-Dec-22 20:11 43.570545 -116.228533 275 2878ft 0kts
14-Dec-22 20:12 43.570545 -116.228533 275 2878ft 0kts
14-Dec-22 20:13 43.569164 -116.228298 206 2878ft 12kts
14-Dec-22 20:14 43.566925 -116.223730 115 2878ft 24kts
14-Dec-22 20:15 43.563818 -116.214629 114 2878ft 25kts
14-Dec-22 20:16 43.561057 -116.206545 114 2878ft 24kts
14-Dec-22 20:17 43.559476 -116.202421 169 2878ft 0kts
14-Dec-22 20:18 43.559476 -116.202421 169 2878ft 0kts
14-Dec-22 20:19 43.558716 -116.203247 294 2878ft 2kts
14-Dec-22 20:20 43.569878 -116.236236 295 3359ft 182kts
14-Dec-22 20:21 43.593410 -116.309678 295 5612ft 237kts
14-Dec-22 20:22 43.567519 -116.379645 197 8213ft 253kts
14-Dec-22 20:23 43.497615 -116.352785 153 9912ft 291kts
14-Dec-22 20:24 43.476646 -116.248917 92 11900ft 297kts
14-Dec-22 20:25 43.452996 -116.135164 102 13764ft 312kts
14-Dec-22 20:26 43.428809 -116.018339 101 15416ft 322kts
14-Dec-22 20:27 43.403835 -115.898931 102 16916ft 330kts
14-Dec-22 20:28 43.377960 -115.775241 103 18650ft 340kts
14-Dec-22 20:29 43.351186 -115.647928 103 20192ft 351kts
14-Dec-22 20:30 43.323558 -115.517366 104 21594ft 360kts
14-Dec-22 20:31 43.293803 -115.384378 116 22848ft 370kts
14-Dec-22 20:32 43.218889 -115.287127 143 24003ft 375kts
14-Dec-22 20:33 43.136213 -115.197645 143 25010ft 384kts
14-Dec-22 20:34 43.051855 -115.105743 143 25908ft 392kts
14-Dec-22 20:35 42.966537 -115.012831 143 27374ft 380kts
14-Dec-22 20:36 42.883337 -114.922581 144 28301ft 388kts
14-Dec-22 20:37 42.798157 -114.830489 144 29125ft 395kts
14-Dec-22 20:38 42.711639 -114.737223 144 30389ft 385kts
14-Dec-22 20:39 42.628353 -114.647815 145 31371ft 388kts
14-Dec-22 20:40 42.543121 -114.556670 145 32148ft 395kts
14-Dec-22 20:41 42.461058 -114.455467 128 32847ft 406kts
14-Dec-22 20:42 42.392893 -114.331014 127 33237ft 421kts
14-Dec-22 20:43 42.321434 -114.200381 128 33238ft 442kts
14-Dec-22 20:44 42.246552 -114.064745 128 33235ft 457kts
14-Dec-22 20:45 42.169254 -113.925443 128 33233ft 469kts
14-Dec-22 20:46 42.090303 -113.783829 128 33235ft 478kts
14-Dec-22 20:47 42.010065 -113.640566 128 33235ft 479kts
14-Dec-22 20:48 41.929866 -113.498058 128 33238ft 476kts
14-Dec-22 20:49 41.849644 -113.356226 127 33232ft 474kts
14-Dec-22 20:50 41.769091 -113.214465 128 33223ft 472kts
14-Dec-22 20:51 41.689674 -113.075354 128 33225ft 470kts
14-Dec-22 20:52 41.610173 -112.936725 128 33231ft 469kts
14-Dec-22 20:53 41.530779 -112.798928 128 33239ft 469kts
14-Dec-22 20:54 41.451181 -112.661393 128 33241ft 469kts
14-Dec-22 20:55 41.371272 -112.523942 128 33234ft 470kts
14-Dec-22 20:56 41.291012 -112.386506 128 33222ft 470kts
14-Dec-22 20:57 41.210524 -112.249304 129 33209ft 470kts
14-Dec-22 20:58 41.129892 -112.112450 129 33222ft 470kts
14-Dec-22 20:59 41.049200 -111.976035 128 33202ft 471kts
14-Dec-22 21:00 40.968018 -111.839538 128 33180ft 472kts
14-Dec-22 21:01 40.886329 -111.702864 128 33173ft 473kts
14-Dec-22 21:02 40.804908 -111.567247 128 33176ft 472kts
14-Dec-22 21:03 40.723336 -111.431587 128 33178ft 472kts
14-Dec-22 21:04 40.641140 -111.296007 129 33172ft 472kts
14-Dec-22 21:05 40.559032 -111.160973 129 33168ft 472kts
14-Dec-22 21:06 40.476525 -111.025912 128 33173ft 472kts
14-Dec-22 21:07 40.393741 -110.891124 129 33191ft 472kts
14-Dec-22 21:08 40.311563 -110.757204 129 33195ft 470kts
14-Dec-22 21:09 40.228576 -110.623247 129 33143ft 472kts
14-Dec-22 21:10 40.145861 -110.489217 129 33107ft 474kts
14-Dec-22 21:11 40.062708 -110.356694 128 33114ft 472kts
14-Dec-22 21:12 39.979691 -110.223913 129 33096ft 472kts
14-Dec-22 21:13 39.896470 -110.091953 129 33105ft 471kts
14-Dec-22 21:14 39.813327 -109.959891 128 33137ft 468kts
14-Dec-22 21:15 39.730547 -109.829494 129 33131ft 469kts
14-Dec-22 21:16 39.647387 -109.699204 129 32634ft 480kts
14-Dec-22 21:17 39.560333 -109.563089 128 31040ft 498kts
14-Dec-22 21:18 39.470833 -109.423890 129 29339ft 508kts
14-Dec-22 21:19 39.380978 -109.284843 128 27550ft 498kts
14-Dec-22 21:20 39.293920 -109.150676 128 25535ft 478kts
14-Dec-22 21:21 39.210512 -109.022694 128 23546ft 457kts
14-Dec-22 21:22 39.130278 -108.900024 128 21564ft 441kts
14-Dec-22 21:23 39.052276 -108.781060 127 19581ft 425kts
14-Dec-22 21:24 38.978316 -108.668478 128 17569ft 393kts
14-Dec-22 21:25 38.884041 -108.653173 199 15545ft 326kts
14-Dec-22 21:26 38.798504 -108.658099 145 13699ft 317kts
14-Dec-22 21:27 38.786984 -108.564976 48 11884ft 268kts
14-Dec-22 21:28 38.837058 -108.500150 43 10064ft 240kts
14-Dec-22 21:29 38.879862 -108.445617 45 8982ft 186kts
14-Dec-22 21:30 38.914073 -108.401767 44 9012ft 173kts
14-Dec-22 21:31 38.951901 -108.358386 39 8750ft 194kts
14-Dec-22 21:32 38.999706 -108.335540 330 8434ft 203kts
14-Dec-22 21:33 39.034611 -108.385241 309 7638ft 169kts
14-Dec-22 21:34 39.061898 -108.426813 310 6728ft 137kts
14-Dec-22 21:35 39.085852 -108.463485 309 5939ft 134kts
14-Dec-22 21:36 39.110051 -108.499421 307 5184ft 133kts
14-Dec-22 21:37 39.127866 -108.531449 308 4839ft 46kts
14-Dec-22 21:38 39.129614 -108.536114 217 4830ft 0kts
14-Dec-22 21:39 39.128185 -108.534402 125 4834ft 20kts
14-Dec-22 21:40 39.123709 -108.526263 125 4844ft 29kts
14-Dec-22 21:41 39.120929 -108.523300 214 4841ft 5kts
14-Dec-22 21:42 39.120793 -108.523264 125 4840ft 0kts

Navigation Log

Ident Type
Flight plan parsing failed, navigation log unavailable